Station Historical Data
Daily Summary for July 4, 2017 Units:  Both    English   Metric
« Previous Day
Next Day »
Daily Weekly Monthly Yearly Custom
  High: Low: Average:
Temperature: 81.7 °F /  27.6 °C 57.2 °F /  14 °C 70.3 °F /  21.3 °C
Dew Point: 60.9 °F /  16.1 °C 49.7 °F /  9.8 °C 55.6 °F /  13.1 °C
Humidity: 91% 40% 63%
Wind Speed: 8.0mph /  12.9km/h - 1.6mph /  2.6km/h
Wind Gust: 13.0mph /  20.9km/h - -
Wind- - East
Pressure: 30.15 in /  1020.9 hPa 30.06 in /  1017.8 hPa -
Precipitation: 0.00 in /  0 mm    
Historical Graphs
 
 
Tabular Data for July 4, 2017
Time Temperature Dew Point Pressure Wind Wind Speed Wind Gust Humidity Rainfall Rate (Hourly)
00:04 63.6 °F /  17.6 °C 58.7 °F /  14.8 °C 30.06in /  1017.8hPa Calm     84% 0.00in /  0mm
00:09 63.3 °F /  17.4 °C 58.4 °F /  14.7 °C 30.06in /  1017.8hPa Calm     84% 0.00in /  0mm
00:14 63.5 °F /  17.5 °C 58.9 °F /  14.9 °C 30.06in /  1017.8hPa Calm     85% 0.00in /  0mm
00:19 63.6 °F /  17.6 °C 59.0 °F /  15 °C 30.06in /  1017.8hPa Calm     85% 0.00in /  0mm
00:24 63.8 °F /  17.7 °C 59.2 °F /  15.1 °C 30.07in /  1018.2hPa Calm     85% 0.00in /  0mm
00:29 64.0 °F /  17.8 °C 59.1 °F /  15.1 °C 30.07in /  1018.2hPa Calm     84% 0.00in /  0mm
00:34 63.6 °F /  17.6 °C 58.7 °F /  14.8 °C 30.07in /  1018.2hPa Calm     84% 0.00in /  0mm
00:39 63.4 °F /  17.4 °C 58.5 °F /  14.7 °C 30.06in /  1017.8hPa Calm     84% 0.00in /  0mm
00:44 63.4 °F /  17.4 °C 58.5 °F /  14.7 °C 30.06in /  1017.8hPa Calm     84% 0.00in /  0mm
00:49 63.4 °F /  17.4 °C 58.8 °F /  14.9 °C 30.06in /  1017.8hPa Calm     85% 0.00in /  0mm
00:54 63.3 °F /  17.4 °C 58.4 °F /  14.7 °C 30.06in /  1017.8hPa Calm     84% 0.00in /  0mm
00:59 63.1 °F /  17.3 °C 58.5 °F /  14.7 °C 30.06in /  1017.8hPa Calm     85% 0.00in /  0mm
01:04 62.7 °F /  17.1 °C 58.1 °F /  14.5 °C 30.06in /  1017.8hPa Calm     85% 0.00in /  0mm
01:09 62.6 °F /  17 °C 58.0 °F /  14.4 °C 30.06in /  1017.8hPa Calm     85% 0.00in /  0mm
01:14 62.8 °F /  17.1 °C 58.2 °F /  14.6 °C 30.06in /  1017.8hPa Calm     85% 0.00in /  0mm
01:19 62.9 °F /  17.2 °C 58.3 °F /  14.6 °C 30.06in /  1017.8hPa Calm     85% 0.00in /  0mm
01:24 62.5 °F /  16.9 °C 57.9 °F /  14.4 °C 30.06in /  1017.8hPa Calm     85% 0.00in /  0mm
01:29 62.3 °F /  16.8 °C 58.1 °F /  14.5 °C 30.06in /  1017.8hPa Calm     86% 0.00in /  0mm
01:34 62.5 °F /  16.9 °C 58.3 °F /  14.6 °C 30.06in /  1017.8hPa Calm     86% 0.00in /  0mm
01:39 62.6 °F /  17 °C 58.0 °F /  14.4 °C 30.06in /  1017.8hPa Calm     85% 0.00in /  0mm
01:44 62.3 °F /  16.8 °C 57.7 °F /  14.3 °C 30.06in /  1017.8hPa Calm     85% 0.00in /  0mm
01:49 62.2 °F /  16.8 °C 57.6 °F /  14.2 °C 30.06in /  1017.8hPa Calm     85% 0.00in /  0mm
01:54 62.2 °F /  16.8 °C 57.6 °F /  14.2 °C 30.06in /  1017.8hPa Calm     85% 0.00in /  0mm
01:59 61.9 °F /  16.6 °C 57.3 °F /  14.1 °C 30.06in /  1017.8hPa Calm     85% 0.00in /  0mm
02:04 61.6 °F /  16.4 °C 57.4 °F /  14.1 °C 30.06in /  1017.8hPa Calm     86% 0.00in /  0mm
02:09 61.6 °F /  16.4 °C 57.4 °F /  14.1 °C 30.06in /  1017.8hPa Calm     86% 0.00in /  0mm
02:14 61.5 °F /  16.4 °C 57.3 °F /  14.1 °C 30.06in /  1017.8hPa Calm     86% 0.00in /  0mm
02:19 61.3 °F /  16.3 °C 57.1 °F /  13.9 °C 30.06in /  1017.8hPa Calm     86% 0.00in /  0mm
02:24 61.3 °F /  16.3 °C 57.4 °F /  14.1 °C 30.06in /  1017.8hPa Calm     87% 0.00in /  0mm
02:29 61.0 °F /  16.1 °C 57.1 °F /  13.9 °C 30.06in /  1017.8hPa Calm     87% 0.00in /  0mm
02:34 60.9 °F /  16.1 °C 57.0 °F /  13.9 °C 30.06in /  1017.8hPa Calm     87% 0.00in /  0mm
02:39 60.7 °F /  15.9 °C 56.8 °F /  13.8 °C 30.06in /  1017.8hPa Calm     87% 0.00in /  0mm
02:44 60.4 °F /  15.8 °C 56.5 °F /  13.6 °C 30.07in /  1018.2hPa Calm     87% 0.00in /  0mm
02:49 60.1 °F /  15.6 °C 56.2 °F /  13.4 °C 30.07in /  1018.2hPa Calm     87% 0.00in /  0mm
02:54 59.9 °F /  15.5 °C 56.3 °F /  13.5 °C 30.07in /  1018.2hPa Calm     88% 0.00in /  0mm
02:59 59.9 °F /  15.5 °C 56.3 °F /  13.5 °C 30.07in /  1018.2hPa Calm     88% 0.00in /  0mm
03:04 59.7 °F /  15.4 °C 56.1 °F /  13.4 °C 30.07in /  1018.2hPa Calm     88% 0.00in /  0mm
03:09 59.7 °F /  15.4 °C 56.1 °F /  13.4 °C 30.07in /  1018.2hPa Calm     88% 0.00in /  0mm
03:14 59.7 °F /  15.4 °C 56.5 °F /  13.6 °C 30.07in /  1018.2hPa Calm     89% 0.00in /  0mm
03:19 59.8 °F /  15.4 °C 56.6 °F /  13.7 °C 30.07in /  1018.2hPa Calm     89% 0.00in /  0mm
03:24 59.7 °F /  15.4 °C 56.5 °F /  13.6 °C 30.07in /  1018.2hPa Calm     89% 0.00in /  0mm
03:29 59.6 °F /  15.3 °C 56.4 °F /  13.6 °C 30.07in /  1018.2hPa Calm     89% 0.00in /  0mm
03:34 59.5 °F /  15.3 °C 56.6 °F /  13.7 °C 30.07in /  1018.2hPa Calm     90% 0.00in /  0mm
03:39 59.4 °F /  15.2 °C 56.2 °F /  13.4 °C 30.07in /  1018.2hPa Calm     89% 0.00in /  0mm
03:44 59.3 °F /  15.2 °C 56.1 °F /  13.4 °C 30.07in /  1018.2hPa Calm     89% 0.00in /  0mm
03:49 59.2 °F /  15.1 °C 56.0 °F /  13.3 °C 30.07in /  1018.2hPa Calm     89% 0.00in /  0mm
03:54 58.9 °F /  14.9 °C 56.0 °F /  13.3 °C 30.07in /  1018.2hPa Calm     90% 0.00in /  0mm
03:59 58.8 °F /  14.9 °C 55.9 °F /  13.3 °C 30.07in /  1018.2hPa Calm     90% 0.00in /  0mm
04:04 58.7 °F /  14.8 °C 55.8 °F /  13.2 °C 30.07in /  1018.2hPa Calm     90% 0.00in /  0mm
04:09 58.6 °F /  14.8 °C 55.7 °F /  13.2 °C 30.07in /  1018.2hPa Calm     90% 0.00in /  0mm
04:14 58.4 °F /  14.7 °C 55.5 °F /  13.1 °C 30.07in /  1018.2hPa Calm     90% 0.00in /  0mm
04:19 58.7 °F /  14.8 °C 55.8 °F /  13.2 °C 30.07in /  1018.2hPa Calm     90% 0.00in /  0mm
04:24 58.7 °F /  14.8 °C 55.8 °F /  13.2 °C 30.07in /  1018.2hPa Calm     90% 0.00in /  0mm
04:29 58.4 °F /  14.7 °C 55.5 °F /  13.1 °C 30.07in /  1018.2hPa Calm     90% 0.00in /  0mm
04:34 58.4 °F /  14.7 °C 55.8 °F /  13.2 °C 30.08in /  1018.5hPa Calm     91% 0.00in /  0mm
04:39 58.6 °F /  14.8 °C 56.0 °F /  13.3 °C 30.08in /  1018.5hPa Calm     91% 0.00in /  0mm
04:44 58.6 °F /  14.8 °C 55.7 °F /  13.2 °C 30.08in /  1018.5hPa Calm     90% 0.00in /  0mm
04:49 58.4 °F /  14.7 °C 55.5 °F /  13.1 °C 30.08in /  1018.5hPa Calm     90% 0.00in /  0mm
04:54 58.3 °F /  14.6 °C 55.4 °F /  13 °C 30.08in /  1018.5hPa Calm     90% 0.00in /  0mm
04:59 58.3 °F /  14.6 °C 55.4 °F /  13 °C 30.08in /  1018.5hPa Calm     90% 0.00in /  0mm
05:04 58.1 °F /  14.5 °C 55.2 °F /  12.9 °C 30.08in /  1018.5hPa Calm     90% 0.00in /  0mm
05:09 58.1 °F /  14.5 °C 55.2 °F /  12.9 °C 30.08in /  1018.5hPa Calm     90% 0.00in /  0mm
05:14 58.2 °F /  14.6 °C 55.6 °F /  13.1 °C 30.08in /  1018.5hPa Calm     91% 0.00in /  0mm
05:19 58.1 °F /  14.5 °C 55.2 °F /  12.9 °C 30.08in /  1018.5hPa Calm     90% 0.00in /  0mm
05:24 58.1 °F /  14.5 °C 55.2 °F /  12.9 °C 30.08in /  1018.5hPa Calm     90% 0.00in /  0mm
05:29 58.0 °F /  14.4 °C 55.1 °F /  12.8 °C 30.08in /  1018.5hPa Calm     90% 0.00in /  0mm
05:34 58.0 °F /  14.4 °C 55.1 °F /  12.8 °C 30.08in /  1018.5hPa Calm     90% 0.00in /  0mm
05:39 57.8 °F /  14.3 °C 54.9 °F /  12.7 °C 30.08in /  1018.5hPa Calm     90% 0.00in /  0mm
05:44 57.7 °F /  14.3 °C 54.8 °F /  12.7 °C 30.09in /  1018.8hPa Calm     90% 0.00in /  0mm
05:49 57.5 °F /  14.2 °C 54.6 °F /  12.6 °C 30.09in /  1018.8hPa Calm     90% 0.00in /  0mm
05:54 57.3 °F /  14.1 °C 54.4 °F /  12.4 °C 30.09in /  1018.8hPa Calm     90% 0.00in /  0mm
05:59 57.3 °F /  14.1 °C 54.7 °F /  12.6 °C 30.09in /  1018.8hPa Calm     91% 0.00in /  0mm
06:04 57.2 °F /  14 °C 54.3 °F /  12.4 °C 30.10in /  1019.2hPa Calm     90% 0.00in /  0mm
06:09 57.2 °F /  14 °C 54.6 °F /  12.6 °C 30.10in /  1019.2hPa Calm     91% 0.00in /  0mm
06:14 57.3 °F /  14.1 °C 54.7 °F /  12.6 °C 30.10in /  1019.2hPa Calm     91% 0.00in /  0mm
06:19 57.6 °F /  14.2 °C 55.0 °F /  12.8 °C 30.10in /  1019.2hPa Calm     91% 0.00in /  0mm
06:24 57.8 °F /  14.3 °C 55.2 °F /  12.9 °C 30.10in /  1019.2hPa Calm     91% 0.00in /  0mm
06:29 57.9 °F /  14.4 °C 55.3 °F /  12.9 °C 30.11in /  1019.5hPa Calm     91% 0.00in /  0mm
06:34 58.0 °F /  14.4 °C 55.4 °F /  13 °C 30.11in /  1019.5hPa Calm     91% 0.00in /  0mm
06:39 58.2 °F /  14.6 °C 55.6 °F /  13.1 °C 30.11in /  1019.5hPa Calm     91% 0.00in /  0mm
06:44 58.6 °F /  14.8 °C 56.0 °F /  13.3 °C 30.11in /  1019.5hPa Calm     91% 0.00in /  0mm
06:49 58.8 °F /  14.9 °C 55.9 °F /  13.3 °C 30.11in /  1019.5hPa Calm     90% 0.00in /  0mm
06:54 59.1 °F /  15.1 °C 56.2 °F /  13.4 °C 30.11in /  1019.5hPa Calm     90% 0.00in /  0mm
06:59 59.5 °F /  15.3 °C 56.6 °F /  13.7 °C 30.11in /  1019.5hPa Calm     90% 0.00in /  0mm
07:04 59.9 °F /  15.5 °C 56.6 °F /  13.7 °C 30.12in /  1019.9hPa Calm     89% 0.00in /  0mm
07:09 60.4 °F /  15.8 °C 56.8 °F /  13.8 °C 30.12in /  1019.9hPa Calm     88% 0.00in /  0mm
07:14 60.9 °F /  16.1 °C 57.3 °F /  14.1 °C 30.12in /  1019.9hPa Calm     88% 0.00in /  0mm
07:19 61.6 °F /  16.4 °C 57.7 °F /  14.3 °C 30.12in /  1019.9hPa Calm     87% 0.00in /  0mm
07:24 62.0 °F /  16.7 °C 57.4 °F /  14.1 °C 30.12in /  1019.9hPa Calm     85% 0.00in /  0mm
07:29 62.7 °F /  17.1 °C 57.8 °F /  14.3 °C 30.12in /  1019.9hPa Calm     84% 0.00in /  0mm
07:34 63.2 °F /  17.3 °C 57.9 °F /  14.4 °C 30.12in /  1019.9hPa Calm     83% 0.00in /  0mm
07:39 63.6 °F /  17.6 °C 58.0 °F /  14.4 °C 30.12in /  1019.9hPa Calm     82% 0.00in /  0mm
07:44 64.0 °F /  17.8 °C 58.4 °F /  14.7 °C 30.13in /  1020.2hPa Calm     82% 0.00in /  0mm
07:49 64.1 °F /  17.8 °C 58.5 °F /  14.7 °C 30.13in /  1020.2hPa Calm     82% 0.00in /  0mm
07:54 64.6 °F /  18.1 °C 58.3 °F /  14.6 °C 30.13in /  1020.2hPa Calm     80% 0.00in /  0mm
07:59 64.8 °F /  18.2 °C 58.5 °F /  14.7 °C 30.13in /  1020.2hPa Calm     80% 0.00in /  0mm
08:04 65.8 °F /  18.8 °C 58.7 °F /  14.8 °C 30.13in /  1020.2hPa Calm     78% 0.00in /  0mm
08:09 66.7 °F /  19.3 °C 58.9 °F /  14.9 °C 30.13in /  1020.2hPa Calm     76% 0.00in /  0mm
08:14 66.7 °F /  19.3 °C 58.9 °F /  14.9 °C 30.13in /  1020.2hPa Calm     76% 0.00in /  0mm
08:19 67.0 °F /  19.4 °C 58.4 °F /  14.7 °C 30.14in /  1020.5hPa ENE 1.0mph /  1.6km/h 4.0mph /  6.4km/h 74% 0.00in /  0mm
08:24 68.1 °F /  20.1 °C 59.9 °F /  15.5 °C 30.13in /  1020.2hPa ENE 1.0mph /  1.6km/h 4.0mph /  6.4km/h 75% 0.00in /  0mm
08:29 68.4 °F /  20.2 °C 59.4 °F /  15.2 °C 30.14in /  1020.5hPa Calm   3.0mph /  4.8km/h 73% 0.00in /  0mm
08:34 68.7 °F /  20.4 °C 59.7 °F /  15.4 °C 30.14in /  1020.5hPa NE 2.0mph /  3.2km/h 3.0mph /  4.8km/h 73% 0.00in /  0mm
08:39 69.0 °F /  20.6 °C 59.2 °F /  15.1 °C 30.14in /  1020.5hPa SE 1.0mph /  1.6km/h 3.0mph /  4.8km/h 71% 0.00in /  0mm
08:44 69.4 °F /  20.8 °C 59.6 °F /  15.3 °C 30.14in /  1020.5hPa East 1.0mph /  1.6km/h 4.0mph /  6.4km/h 71% 0.00in /  0mm
08:49 69.9 °F /  21.1 °C 59.7 °F /  15.4 °C 30.14in /  1020.5hPa East 2.0mph /  3.2km/h 4.0mph /  6.4km/h 70% 0.00in /  0mm
08:54 69.8 °F /  21 °C 58.8 °F /  14.9 °C 30.14in /  1020.5hPa ENE 2.0mph /  3.2km/h 4.0mph /  6.4km/h 68% 0.00in /  0mm
08:59 70.3 °F /  21.3 °C 59.2 °F /  15.1 °C 30.14in /  1020.5hPa ENE 2.0mph /  3.2km/h 5.0mph /  8km/h 68% 0.00in /  0mm
09:04 70.3 °F /  21.3 °C 58.8 °F /  14.9 °C 30.14in /  1020.5hPa ENE 2.0mph /  3.2km/h 5.0mph /  8km/h 67% 0.00in /  0mm
09:09 70.6 °F /  21.4 °C 59.9 °F /  15.5 °C 30.14in /  1020.5hPa ENE 2.0mph /  3.2km/h 5.0mph /  8km/h 69% 0.00in /  0mm
09:14 71.2 °F /  21.8 °C 59.7 °F /  15.4 °C 30.14in /  1020.5hPa North 1.0mph /  1.6km/h 3.0mph /  4.8km/h 67% 0.00in /  0mm
09:19 71.9 °F /  22.2 °C 59.9 °F /  15.5 °C 30.14in /  1020.5hPa NNE 1.0mph /  1.6km/h 3.0mph /  4.8km/h 66% 0.00in /  0mm
09:24 71.6 °F /  22 °C 58.8 °F /  14.9 °C 30.14in /  1020.5hPa ENE 4.0mph /  6.4km/h 5.0mph /  8km/h 64% 0.00in /  0mm
09:29 71.8 °F /  22.1 °C 59.4 °F /  15.2 °C 30.14in /  1020.5hPa Calm   4.0mph /  6.4km/h 65% 0.00in /  0mm
09:34 73.0 °F /  22.8 °C 59.7 °F /  15.4 °C 30.14in /  1020.5hPa SE 1.0mph /  1.6km/h 5.0mph /  8km/h 63% 0.00in /  0mm
09:39 72.1 °F /  22.3 °C 59.2 °F /  15.1 °C 30.14in /  1020.5hPa Calm   2.0mph /  3.2km/h 64% 0.00in /  0mm
09:44 73.4 °F /  23 °C 58.2 °F /  14.6 °C 30.14in /  1020.5hPa Calm   2.0mph /  3.2km/h 59% 0.00in /  0mm
09:49 73.1 °F /  22.8 °C 58.8 °F /  14.9 °C 30.13in /  1020.2hPa ENE 2.0mph /  3.2km/h 7.0mph /  11.3km/h 61% 0.00in /  0mm
09:54 73.2 °F /  22.9 °C 58.9 °F /  14.9 °C 30.13in /  1020.2hPa East 2.0mph /  3.2km/h 7.0mph /  11.3km/h 61% 0.00in /  0mm
09:59 73.7 °F /  23.2 °C 58.9 °F /  14.9 °C 30.13in /  1020.2hPa East 2.0mph /  3.2km/h 4.0mph /  6.4km/h 60% 0.00in /  0mm
10:04 74.2 °F /  23.4 °C 58.5 °F /  14.7 °C 30.13in /  1020.2hPa ENE 1.0mph /  1.6km/h 4.0mph /  6.4km/h 58% 0.00in /  0mm
10:09 74.5 °F /  23.6 °C 59.2 °F /  15.1 °C 30.13in /  1020.2hPa East 1.0mph /  1.6km/h 4.0mph /  6.4km/h 59% 0.00in /  0mm
10:14 74.7 °F /  23.7 °C 58.5 °F /  14.7 °C 30.13in /  1020.2hPa NE 3.0mph /  4.8km/h 6.0mph /  9.7km/h 57% 0.00in /  0mm
10:19 74.2 °F /  23.4 °C 58.9 °F /  14.9 °C 30.13in /  1020.2hPa ENE 2.0mph /  3.2km/h 6.0mph /  9.7km/h 59% 0.00in /  0mm
10:24 74.3 °F /  23.5 °C 60.9 °F /  16.1 °C 30.13in /  1020.2hPa WSW 2.0mph /  3.2km/h 2.0mph /  3.2km/h 63% 0.00in /  0mm
10:29 75.0 °F /  23.9 °C 59.7 °F /  15.4 °C 30.13in /  1020.2hPa NE 5.0mph /  8km/h 7.0mph /  11.3km/h 59% 0.00in /  0mm
10:34 74.7 °F /  23.7 °C 58.0 °F /  14.4 °C 30.13in /  1020.2hPa NNE 3.0mph /  4.8km/h 7.0mph /  11.3km/h 56% 0.00in /  0mm
10:39 75.2 °F /  24 °C 57.4 °F /  14.1 °C 30.14in /  1020.5hPa NW 2.0mph /  3.2km/h 4.0mph /  6.4km/h 54% 0.00in /  0mm
10:44 75.7 °F /  24.3 °C 57.4 °F /  14.1 °C 30.13in /  1020.2hPa NNE 2.0mph /  3.2km/h 5.0mph /  8km/h 53% 0.00in /  0mm
10:49 75.9 °F /  24.4 °C 59.1 °F /  15.1 °C 30.13in /  1020.2hPa North 2.0mph /  3.2km/h 6.0mph /  9.7km/h 56% 0.00in /  0mm
10:54 75.7 °F /  24.3 °C 59.4 °F /  15.2 °C 30.13in /  1020.2hPa East 2.0mph /  3.2km/h 6.0mph /  9.7km/h 57% 0.00in /  0mm
10:59 77.2 °F /  25.1 °C 58.7 °F /  14.8 °C 30.13in /  1020.2hPa SE 2.0mph /  3.2km/h 5.0mph /  8km/h 53% 0.00in /  0mm
11:04 76.9 °F /  24.9 °C 56.3 °F /  13.5 °C 30.13in /  1020.2hPa NE 5.0mph /  8km/h 6.0mph /  9.7km/h 49% 0.00in /  0mm
11:09 76.8 °F /  24.9 °C 57.8 °F /  14.3 °C 30.13in /  1020.2hPa WNW 4.0mph /  6.4km/h 5.0mph /  8km/h 52% 0.00in /  0mm
11:14 76.7 °F /  24.8 °C 56.1 °F /  13.4 °C 30.13in /  1020.2hPa WNW 2.0mph /  3.2km/h 6.0mph /  9.7km/h 49% 0.00in /  0mm
11:19 76.4 °F /  24.7 °C 57.5 °F /  14.2 °C 30.13in /  1020.2hPa NNW 3.0mph /  4.8km/h 6.0mph /  9.7km/h 52% 0.00in /  0mm
11:24 76.7 °F /  24.8 °C 56.1 °F /  13.4 °C 30.13in /  1020.2hPa NW 2.0mph /  3.2km/h 6.0mph /  9.7km/h 49% 0.00in /  0mm
11:29 76.6 °F /  24.8 °C 59.2 °F /  15.1 °C 30.12in /  1019.9hPa NW 2.0mph /  3.2km/h 4.0mph /  6.4km/h 55% 0.00in /  0mm
11:34 78.1 °F /  25.6 °C 58.5 °F /  14.7 °C 30.12in /  1019.9hPa NE 4.0mph /  6.4km/h 5.0mph /  8km/h 51% 0.00in /  0mm
11:39 77.5 °F /  25.3 °C 57.4 °F /  14.1 °C 30.12in /  1019.9hPa NE 3.0mph /  4.8km/h 7.0mph /  11.3km/h 50% 0.00in /  0mm
11:44 78.6 °F /  25.9 °C 60.0 °F /  15.6 °C 30.12in /  1019.9hPa NNE 2.0mph /  3.2km/h 6.0mph /  9.7km/h 53% 0.00in /  0mm
11:49 78.4 °F /  25.8 °C 57.7 °F /  14.3 °C 30.12in /  1019.9hPa East 1.0mph /  1.6km/h 6.0mph /  9.7km/h 49% 0.00in /  0mm
11:54 78.4 °F /  25.8 °C 58.8 °F /  14.9 °C 30.12in /  1019.9hPa ENE 2.0mph /  3.2km/h 6.0mph /  9.7km/h 51% 0.00in /  0mm
11:59 78.7 °F /  25.9 °C 57.4 °F /  14.1 °C 30.12in /  1019.9hPa NNE 2.0mph /  3.2km/h 5.0mph /  8km/h 48% 0.00in /  0mm
12:04 79.2 °F /  26.2 °C 57.8 °F /  14.3 °C 30.12in /  1019.9hPa North 3.0mph /  4.8km/h 8.0mph /  12.9km/h 48% 0.00in /  0mm
12:09 78.5 °F /  25.8 °C 57.7 °F /  14.3 °C 30.12in /  1019.9hPa NE 2.0mph /  3.2km/h 8.0mph /  12.9km/h 49% 0.00in /  0mm
12:14 78.4 °F /  25.8 °C 59.9 °F /  15.5 °C 30.12in /  1019.9hPa North 2.0mph /  3.2km/h 7.0mph /  11.3km/h 53% 0.00in /  0mm
12:19 78.8 °F /  26 °C 55.7 °F /  13.2 °C 30.12in /  1019.9hPa NW 2.0mph /  3.2km/h 7.0mph /  11.3km/h 45% 0.00in /  0mm
12:24 78.7 °F /  25.9 °C 56.2 °F /  13.4 °C 30.12in /  1019.9hPa NE 3.0mph /  4.8km/h 8.0mph /  12.9km/h 46% 0.00in /  0mm
12:29 78.5 °F /  25.8 °C 58.3 °F /  14.6 °C 30.12in /  1019.9hPa NNE 3.0mph /  4.8km/h 8.0mph /  12.9km/h 50% 0.00in /  0mm
12:34 79.1 °F /  26.2 °C 57.1 °F /  13.9 °C 30.12in /  1019.9hPa NNE 3.0mph /  4.8km/h 9.0mph /  14.5km/h 47% 0.00in /  0mm
12:39 78.9 °F /  26.1 °C 56.4 °F /  13.6 °C 30.12in /  1019.9hPa NNE 3.0mph /  4.8km/h 7.0mph /  11.3km/h 46% 0.00in /  0mm
12:44 78.6 °F /  25.9 °C 58.4 °F /  14.7 °C 30.11in /  1019.5hPa NNE 2.0mph /  3.2km/h 8.0mph /  12.9km/h 50% 0.00in /  0mm
12:49 77.5 °F /  25.3 °C 55.7 °F /  13.2 °C 30.12in /  1019.9hPa North 3.0mph /  4.8km/h 9.0mph /  14.5km/h 47% 0.00in /  0mm
12:54 78.3 °F /  25.7 °C 55.2 °F /  12.9 °C 30.11in /  1019.5hPa NE 3.0mph /  4.8km/h 9.0mph /  14.5km/h 45% 0.00in /  0mm
12:59 78.5 °F /  25.8 °C 52.8 °F /  11.6 °C 30.11in /  1019.5hPa NE 6.0mph /  9.7km/h 10.0mph /  16.1km/h 41% 0.00in /  0mm
13:04 77.3 °F /  25.2 °C 54.9 °F /  12.7 °C 30.11in /  1019.5hPa NE 4.0mph /  6.4km/h 10.0mph /  16.1km/h 46% 0.00in /  0mm
13:09 78.9 °F /  26.1 °C 57.0 °F /  13.9 °C 30.11in /  1019.5hPa South 3.0mph /  4.8km/h 6.0mph /  9.7km/h 47% 0.00in /  0mm
13:14 77.7 °F /  25.4 °C 55.9 °F /  13.3 °C 30.11in /  1019.5hPa North 2.0mph /  3.2km/h 7.0mph /  11.3km/h 47% 0.00in /  0mm
13:19 76.7 °F /  24.8 °C 53.1 °F /  11.7 °C 30.11in /  1019.5hPa North 3.0mph /  4.8km/h 7.0mph /  11.3km/h 44% 0.00in /  0mm
13:24 77.1 °F /  25.1 °C 55.9 °F /  13.3 °C 30.10in /  1019.2hPa North 3.0mph /  4.8km/h 9.0mph /  14.5km/h 48% 0.00in /  0mm
13:29 78.3 °F /  25.7 °C 54.6 °F /  12.6 °C 30.10in /  1019.2hPa NNE 3.0mph /  4.8km/h 10.0mph /  16.1km/h 44% 0.00in /  0mm
13:34 79.3 °F /  26.3 °C 57.3 °F /  14.1 °C 30.10in /  1019.2hPa NNE 3.0mph /  4.8km/h 10.0mph /  16.1km/h 47% 0.00in /  0mm
13:39 80.2 °F /  26.8 °C 55.7 °F /  13.2 °C 30.10in /  1019.2hPa NNE 3.0mph /  4.8km/h 8.0mph /  12.9km/h 43% 0.00in /  0mm
13:44 80.3 °F /  26.8 °C 57.6 °F /  14.2 °C 30.10in /  1019.2hPa North 2.0mph /  3.2km/h 11.0mph /  17.7km/h 46% 0.00in /  0mm
13:49 80.5 °F /  26.9 °C 55.9 °F /  13.3 °C 30.10in /  1019.2hPa NNE 3.0mph /  4.8km/h 11.0mph /  17.7km/h 43% 0.00in /  0mm
13:54 80.9 °F /  27.2 °C 55.7 °F /  13.2 °C 30.10in /  1019.2hPa North 3.0mph /  4.8km/h 6.0mph /  9.7km/h 42% 0.00in /  0mm
13:59 80.9 °F /  27.2 °C 54.3 °F /  12.4 °C 30.10in /  1019.2hPa NNW 3.0mph /  4.8km/h 6.0mph /  9.7km/h 40% 0.00in /  0mm
14:04 80.8 °F /  27.1 °C 55.6 °F /  13.1 °C 30.10in /  1019.2hPa Calm   6.0mph /  9.7km/h 42% 0.00in /  0mm
14:09 80.7 °F /  27.1 °C 56.8 °F /  13.8 °C 30.10in /  1019.2hPa North 5.0mph /  8km/h 5.0mph /  8km/h 44% 0.00in /  0mm
14:14 78.4 °F /  25.8 °C 55.3 °F /  12.9 °C 30.10in /  1019.2hPa NNW 4.0mph /  6.4km/h 4.0mph /  6.4km/h 45% 0.00in /  0mm
14:19 77.4 °F /  25.2 °C 55.6 °F /  13.1 °C 30.10in /  1019.2hPa NNW 3.0mph /  4.8km/h 7.0mph /  11.3km/h 47% 0.00in /  0mm
14:24 77.1 °F /  25.1 °C 54.7 °F /  12.6 °C 30.10in /  1019.2hPa North 3.0mph /  4.8km/h 8.0mph /  12.9km/h 46% 0.00in /  0mm
14:29 77.2 °F /  25.1 °C 54.8 °F /  12.7 °C 30.10in /  1019.2hPa Calm   2.0mph /  3.2km/h 46% 0.00in /  0mm
14:34 78.4 °F /  25.8 °C 59.3 °F /  15.2 °C 30.10in /  1019.2hPa ENE 3.0mph /  4.8km/h 3.0mph /  4.8km/h 52% 0.00in /  0mm
14:44 77.5 °F /  25.3 °C 55.1 °F /  12.8 °C 30.10in /  1019.2hPa ENE 2.0mph /  3.2km/h 7.0mph /  11.3km/h 46% 0.00in /  0mm
14:49 78.0 °F /  25.6 °C 57.9 °F /  14.4 °C 30.10in /  1019.2hPa NE 2.0mph /  3.2km/h 9.0mph /  14.5km/h 50% 0.00in /  0mm
14:54 78.3 °F /  25.7 °C 55.8 °F /  13.2 °C 30.09in /  1018.8hPa NE 3.0mph /  4.8km/h 10.0mph /  16.1km/h 46% 0.00in /  0mm
14:59 79.2 °F /  26.2 °C 57.8 °F /  14.3 °C 30.09in /  1018.8hPa NE 4.0mph /  6.4km/h 10.0mph /  16.1km/h 48% 0.00in /  0mm
15:04 81.0 °F /  27.2 °C 59.5 °F /  15.3 °C 30.09in /  1018.8hPa NNE 3.0mph /  4.8km/h 8.0mph /  12.9km/h 48% 0.00in /  0mm
15:09 81.6 °F /  27.6 °C 58.2 °F /  14.6 °C 30.09in /  1018.8hPa North 4.0mph /  6.4km/h 11.0mph /  17.7km/h 45% 0.00in /  0mm
15:14 81.2 °F /  27.3 °C 57.8 °F /  14.3 °C 30.09in /  1018.8hPa NNE 4.0mph /  6.4km/h 13.0mph /  20.9km/h 45% 0.00in /  0mm
15:19 80.5 °F /  26.9 °C 58.4 °F /  14.7 °C 30.09in /  1018.8hPa NE 4.0mph /  6.4km/h 13.0mph /  20.9km/h 47% 0.00in /  0mm
15:24 80.9 °F /  27.2 °C 57.6 °F /  14.2 °C 30.09in /  1018.8hPa NNW 1.0mph /  1.6km/h 8.0mph /  12.9km/h 45% 0.00in /  0mm
15:29 81.5 °F /  27.5 °C 58.7 °F /  14.8 °C 30.09in /  1018.8hPa NE 3.0mph /  4.8km/h 11.0mph /  17.7km/h 46% 0.00in /  0mm
15:34 81.5 °F /  27.5 °C 58.7 °F /  14.8 °C 30.09in /  1018.8hPa NE 4.0mph /  6.4km/h 6.0mph /  9.7km/h 46% 0.00in /  0mm
15:39 81.4 °F /  27.4 °C 58.6 °F /  14.8 °C 30.09in /  1018.8hPa ENE 4.0mph /  6.4km/h 6.0mph /  9.7km/h 46% 0.00in /  0mm
15:44 81.6 °F /  27.6 °C 57.6 °F /  14.2 °C 30.10in /  1019.2hPa ENE 2.0mph /  3.2km/h 11.0mph /  17.7km/h 44% 0.00in /  0mm
15:49 81.7 °F /  27.6 °C 57.7 °F /  14.3 °C 30.10in /  1019.2hPa NE 4.0mph /  6.4km/h 11.0mph /  17.7km/h 44% 0.00in /  0mm
15:54 81.2 °F /  27.3 °C 57.8 °F /  14.3 °C 30.10in /  1019.2hPa NE 4.0mph /  6.4km/h 11.0mph /  17.7km/h 45% 0.00in /  0mm
15:59 80.9 °F /  27.2 °C 58.2 °F /  14.6 °C 30.10in /  1019.2hPa North 4.0mph /  6.4km/h 9.0mph /  14.5km/h 46% 0.00in /  0mm
16:04 81.0 °F /  27.2 °C 56.4 °F /  13.6 °C 30.10in /  1019.2hPa East 3.0mph /  4.8km/h 10.0mph /  16.1km/h 43% 0.00in /  0mm
16:09 81.1 °F /  27.3 °C 57.7 °F /  14.3 °C 30.09in /  1018.8hPa ENE 7.0mph /  11.3km/h 7.0mph /  11.3km/h 45% 0.00in /  0mm
16:14 81.3 °F /  27.4 °C 58.5 °F /  14.7 °C 30.09in /  1018.8hPa NNW 8.0mph /  12.9km/h 9.0mph /  14.5km/h 46% 0.00in /  0mm
16:19 81.1 °F /  27.3 °C 57.7 °F /  14.3 °C 30.10in /  1019.2hPa North 4.0mph /  6.4km/h 10.0mph /  16.1km/h 45% 0.00in /  0mm
16:24 81.0 °F /  27.2 °C 57.7 °F /  14.3 °C 30.10in /  1019.2hPa NNW 4.0mph /  6.4km/h 10.0mph /  16.1km/h 45% 0.00in /  0mm
16:29 80.6 °F /  27 °C 57.9 °F /  14.4 °C 30.10in /  1019.2hPa NNW 3.0mph /  4.8km/h 8.0mph /  12.9km/h 46% 0.00in /  0mm
16:34 79.4 °F /  26.3 °C 56.2 °F /  13.4 °C 30.10in /  1019.2hPa North 3.0mph /  4.8km/h 9.0mph /  14.5km/h 45% 0.00in /  0mm
16:39 79.2 °F /  26.2 °C 58.4 °F /  14.7 °C 30.10in /  1019.2hPa North 3.0mph /  4.8km/h 9.0mph /  14.5km/h 49% 0.00in /  0mm
16:44 79.7 °F /  26.5 °C 57.1 °F /  13.9 °C 30.10in /  1019.2hPa NNE 3.0mph /  4.8km/h 10.0mph /  16.1km/h 46% 0.00in /  0mm
16:49 80.0 °F /  26.7 °C 54.8 °F /  12.7 °C 30.10in /  1019.2hPa NE 4.0mph /  6.4km/h 10.0mph /  16.1km/h 42% 0.00in /  0mm
16:54 79.8 °F /  26.6 °C 55.9 °F /  13.3 °C 30.10in /  1019.2hPa ENE 5.0mph /  8km/h 10.0mph /  16.1km/h 44% 0.00in /  0mm
16:59 79.6 °F /  26.4 °C 54.5 °F /  12.5 °C 30.10in /  1019.2hPa North 3.0mph /  4.8km/h 9.0mph /  14.5km/h 42% 0.00in /  0mm
17:04 78.8 °F /  26 °C 55.7 °F /  13.2 °C 30.10in /  1019.2hPa NE 4.0mph /  6.4km/h 5.0mph /  8km/h 45% 0.00in /  0mm
17:09 77.7 °F /  25.4 °C 54.7 °F /  12.6 °C 30.09in /  1018.8hPa East 2.0mph /  3.2km/h 8.0mph /  12.9km/h 45% 0.00in /  0mm
17:14 78.0 °F /  25.6 °C 56.1 °F /  13.4 °C 30.10in /  1019.2hPa ENE 3.0mph /  4.8km/h 8.0mph /  12.9km/h 47% 0.00in /  0mm
17:19 79.2 °F /  26.2 °C 55.4 °F /  13 °C 30.09in /  1018.8hPa ENE 4.0mph /  6.4km/h 10.0mph /  16.1km/h 44% 0.00in /  0mm
17:24 80.1 °F /  26.7 °C 56.2 °F /  13.4 °C 30.09in /  1018.8hPa NE 4.0mph /  6.4km/h 10.0mph /  16.1km/h 44% 0.00in /  0mm
17:29 79.3 °F /  26.3 °C 56.1 °F /  13.4 °C 30.09in /  1018.8hPa NNE 3.0mph /  4.8km/h 9.0mph /  14.5km/h 45% 0.00in /  0mm
17:34 78.7 °F /  25.9 °C 55.0 °F /  12.8 °C 30.09in /  1018.8hPa NNE 3.0mph /  4.8km/h 9.0mph /  14.5km/h 44% 0.00in /  0mm
17:39 77.9 °F /  25.5 °C 55.5 °F /  13.1 °C 30.09in /  1018.8hPa NNE 3.0mph /  4.8km/h 9.0mph /  14.5km/h 46% 0.00in /  0mm
17:44 78.0 °F /  25.6 °C 54.3 °F /  12.4 °C 30.09in /  1018.8hPa ENE 7.0mph /  11.3km/h 11.0mph /  17.7km/h 44% 0.00in /  0mm
17:49 78.8 °F /  26 °C 55.0 °F /  12.8 °C 30.09in /  1018.8hPa ENE 5.0mph /  8km/h 12.0mph /  19.3km/h 44% 0.00in /  0mm
17:54 79.0 °F /  26.1 °C 55.8 °F /  13.2 °C 30.09in /  1018.8hPa ENE 5.0mph /  8km/h 12.0mph /  19.3km/h 45% 0.00in /  0mm
17:59 79.1 °F /  26.2 °C 54.0 °F /  12.2 °C 30.09in /  1018.8hPa NE 4.0mph /  6.4km/h 10.0mph /  16.1km/h 42% 0.00in /  0mm
18:04 79.2 °F /  26.2 °C 55.4 °F /  13 °C 30.09in /  1018.8hPa NE 3.0mph /  4.8km/h 7.0mph /  11.3km/h 44% 0.00in /  0mm
18:09 79.4 °F /  26.3 °C 56.2 °F /  13.4 °C 30.09in /  1018.8hPa North 2.0mph /  3.2km/h 5.0mph /  8km/h 45% 0.00in /  0mm
18:14 79.1 °F /  26.2 °C 54.7 °F /  12.6 °C 30.09in /  1018.8hPa NNE 2.0mph /  3.2km/h 9.0mph /  14.5km/h 43% 0.00in /  0mm
18:19 78.4 °F /  25.8 °C 53.4 °F /  11.9 °C 30.09in /  1018.8hPa NNE 3.0mph /  4.8km/h 9.0mph /  14.5km/h 42% 0.00in /  0mm
18:24 77.8 °F /  25.4 °C 53.5 °F /  11.9 °C 30.09in /  1018.8hPa North 2.0mph /  3.2km/h 7.0mph /  11.3km/h 43% 0.00in /  0mm
18:29 78.3 °F /  25.7 °C 54.0 °F /  12.2 °C 30.09in /  1018.8hPa North 2.0mph /  3.2km/h 6.0mph /  9.7km/h 43% 0.00in /  0mm
18:34 78.1 °F /  25.6 °C 52.5 °F /  11.4 °C 30.09in /  1018.8hPa NE 4.0mph /  6.4km/h 9.0mph /  14.5km/h 41% 0.00in /  0mm
18:39 78.0 °F /  25.6 °C 53.0 °F /  11.7 °C 30.09in /  1018.8hPa NE 4.0mph /  6.4km/h 9.0mph /  14.5km/h 42% 0.00in /  0mm
18:44 77.5 °F /  25.3 °C 52.6 °F /  11.4 °C 30.09in /  1018.8hPa North 5.0mph /  8km/h 6.0mph /  9.7km/h 42% 0.00in /  0mm
18:49 77.4 °F /  25.2 °C 53.1 °F /  11.7 °C 30.09in /  1018.8hPa NE 3.0mph /  4.8km/h 9.0mph /  14.5km/h 43% 0.00in /  0mm
18:54 77.3 °F /  25.2 °C 52.4 °F /  11.3 °C 30.09in /  1018.8hPa NE 3.0mph /  4.8km/h 9.0mph /  14.5km/h 42% 0.00in /  0mm
18:59 77.2 °F /  25.1 °C 52.3 °F /  11.3 °C 30.09in /  1018.8hPa ENE 4.0mph /  6.4km/h 9.0mph /  14.5km/h 42% 0.00in /  0mm
19:04 76.8 °F /  24.9 °C 52.0 °F /  11.1 °C 30.09in /  1018.8hPa North 4.0mph /  6.4km/h 10.0mph /  16.1km/h 42% 0.00in /  0mm
19:09 76.7 °F /  24.8 °C 51.9 °F /  11.1 °C 30.10in /  1019.2hPa ENE 7.0mph /  11.3km/h 9.0mph /  14.5km/h 42% 0.00in /  0mm
19:14 76.7 °F /  24.8 °C 51.2 °F /  10.7 °C 30.10in /  1019.2hPa NE 5.0mph /  8km/h 10.0mph /  16.1km/h 41% 0.00in /  0mm
19:19 76.6 °F /  24.8 °C 51.8 °F /  11 °C 30.10in /  1019.2hPa NE 5.0mph /  8km/h 10.0mph /  16.1km/h 42% 0.00in /  0mm
19:24 76.4 °F /  24.7 °C 52.2 °F /  11.2 °C 30.10in /  1019.2hPa NE 3.0mph /  4.8km/h 8.0mph /  12.9km/h 43% 0.00in /  0mm
19:29 76.2 °F /  24.6 °C 51.4 °F /  10.8 °C 30.10in /  1019.2hPa NNE 3.0mph /  4.8km/h 7.0mph /  11.3km/h 42% 0.00in /  0mm
19:34 76.0 °F /  24.4 °C 51.2 °F /  10.7 °C 30.10in /  1019.2hPa ENE 2.0mph /  3.2km/h 9.0mph /  14.5km/h 42% 0.00in /  0mm
19:39 76.1 °F /  24.5 °C 52.0 °F /  11.1 °C 30.10in /  1019.2hPa ENE 4.0mph /  6.4km/h 9.0mph /  14.5km/h 43% 0.00in /  0mm
19:44 75.6 °F /  24.2 °C 50.9 °F /  10.5 °C 30.10in /  1019.2hPa NE 2.0mph /  3.2km/h 5.0mph /  8km/h 42% 0.00in /  0mm
19:49 75.5 °F /  24.2 °C 50.8 °F /  10.4 °C 30.10in /  1019.2hPa NE 3.0mph /  4.8km/h 9.0mph /  14.5km/h 42% 0.00in /  0mm
19:54 75.6 °F /  24.2 °C 51.5 °F /  10.8 °C 30.11in /  1019.5hPa NE 4.0mph /  6.4km/h 10.0mph /  16.1km/h 43% 0.00in /  0mm
19:59 75.1 °F /  23.9 °C 51.1 °F /  10.6 °C 30.11in /  1019.5hPa NE 3.0mph /  4.8km/h 10.0mph /  16.1km/h 43% 0.00in /  0mm
20:04 75.1 °F /  23.9 °C 50.4 °F /  10.2 °C 30.11in /  1019.5hPa NE 3.0mph /  4.8km/h 9.0mph /  14.5km/h 42% 0.00in /  0mm
20:09 75.0 °F /  23.9 °C 50.3 °F /  10.2 °C 30.11in /  1019.5hPa NE 7.0mph /  11.3km/h 8.0mph /  12.9km/h 42% 0.00in /  0mm
20:14 74.9 °F /  23.8 °C 50.3 °F /  10.2 °C 30.11in /  1019.5hPa NE 3.0mph /  4.8km/h 10.0mph /  16.1km/h 42% 0.00in /  0mm
20:19 74.6 °F /  23.7 °C 50.0 °F /  10 °C 30.11in /  1019.5hPa ENE 4.0mph /  6.4km/h 10.0mph /  16.1km/h 42% 0.00in /  0mm
20:24 74.5 °F /  23.6 °C 49.9 °F /  9.9 °C 30.11in /  1019.5hPa ENE 4.0mph /  6.4km/h 7.0mph /  11.3km/h 42% 0.00in /  0mm
20:29 74.4 °F /  23.6 °C 49.8 °F /  9.9 °C 30.11in /  1019.5hPa ENE 3.0mph /  4.8km/h 6.0mph /  9.7km/h 42% 0.00in /  0mm
20:34 74.0 °F /  23.3 °C 50.1 °F /  10.1 °C 30.11in /  1019.5hPa ENE 3.0mph /  4.8km/h 5.0mph /  8km/h 43% 0.00in /  0mm
20:39 73.9 °F /  23.3 °C 50.0 °F /  10 °C 30.11in /  1019.5hPa ENE 4.0mph /  6.4km/h 7.0mph /  11.3km/h 43% 0.00in /  0mm
20:44 73.7 °F /  23.2 °C 49.8 °F /  9.9 °C 30.11in /  1019.5hPa ENE 2.0mph /  3.2km/h 5.0mph /  8km/h 43% 0.00in /  0mm
20:49 73.4 °F /  23 °C 50.2 °F /  10.1 °C 30.11in /  1019.5hPa Calm   4.0mph /  6.4km/h 44% 0.00in /  0mm
20:54 73.1 °F /  22.8 °C 49.9 °F /  9.9 °C 30.11in /  1019.5hPa ENE 1.0mph /  1.6km/h 5.0mph /  8km/h 44% 0.00in /  0mm
20:59 72.9 °F /  22.7 °C 49.7 °F /  9.8 °C 30.11in /  1019.5hPa NE 2.0mph /  3.2km/h 5.0mph /  8km/h 44% 0.00in /  0mm
21:04 72.6 °F /  22.6 °C 50.0 °F /  10 °C 30.12in /  1019.9hPa NE 2.0mph /  3.2km/h 5.0mph /  8km/h 45% 0.00in /  0mm
21:09 72.3 °F /  22.4 °C 50.4 °F /  10.2 °C 30.12in /  1019.9hPa NE 1.0mph /  1.6km/h 4.0mph /  6.4km/h 46% 0.00in /  0mm
21:14 71.7 °F /  22.1 °C 50.4 °F /  10.2 °C 30.12in /  1019.9hPa Calm     47% 0.00in /  0mm
21:19 71.2 °F /  21.8 °C 50.5 °F /  10.3 °C 30.12in /  1019.9hPa Calm     48% 0.00in /  0mm
21:24 70.6 °F /  21.4 °C 50.5 °F /  10.3 °C 30.12in /  1019.9hPa Calm     49% 0.00in /  0mm
21:29 70.3 °F /  21.3 °C 50.2 °F /  10.1 °C 30.12in /  1019.9hPa Calm     49% 0.00in /  0mm
21:34 70.2 °F /  21.2 °C 50.7 °F /  10.4 °C 30.12in /  1019.9hPa Calm     50% 0.00in /  0mm
21:39 70.0 °F /  21.1 °C 51.0 °F /  10.6 °C 30.12in /  1019.9hPa Calm     51% 0.00in /  0mm
21:44 69.7 °F /  20.9 °C 51.3 °F /  10.7 °C 30.13in /  1020.2hPa Calm     52% 0.00in /  0mm
21:49 69.4 °F /  20.8 °C 51.0 °F /  10.6 °C 30.13in /  1020.2hPa Calm     52% 0.00in /  0mm
21:54 69.3 °F /  20.7 °C 50.9 °F /  10.5 °C 30.13in /  1020.2hPa Calm     52% 0.00in /  0mm
21:59 69.0 °F /  20.6 °C 51.2 °F /  10.7 °C 30.13in /  1020.2hPa Calm     53% 0.00in /  0mm
22:04 69.0 °F /  20.6 °C 51.7 °F /  10.9 °C 30.13in /  1020.2hPa Calm     54% 0.00in /  0mm
22:09 69.0 °F /  20.6 °C 51.2 °F /  10.7 °C 30.13in /  1020.2hPa Calm     53% 0.00in /  0mm
22:14 69.1 °F /  20.6 °C 51.2 °F /  10.7 °C 30.13in /  1020.2hPa Calm     53% 0.00in /  0mm
22:19 69.2 °F /  20.7 °C 50.8 °F /  10.4 °C 30.13in /  1020.2hPa NE 1.0mph /  1.6km/h 4.0mph /  6.4km/h 52% 0.00in /  0mm
22:24 69.3 °F /  20.7 °C 50.9 °F /  10.5 °C 30.14in /  1020.5hPa NE 2.0mph /  3.2km/h 4.0mph /  6.4km/h 52% 0.00in /  0mm
22:29 69.0 °F /  20.6 °C 51.2 °F /  10.7 °C 30.14in /  1020.5hPa NE 2.0mph /  3.2km/h 4.0mph /  6.4km/h 53% 0.00in /  0mm
22:34 69.0 °F /  20.6 °C 50.6 °F /  10.3 °C 30.14in /  1020.5hPa Calm   3.0mph /  4.8km/h 52% 0.00in /  0mm
22:39 68.7 °F /  20.4 °C 50.9 °F /  10.5 °C 30.14in /  1020.5hPa NE 1.0mph /  1.6km/h 3.0mph /  4.8km/h 53% 0.00in /  0mm
22:44 68.5 °F /  20.3 °C 50.7 °F /  10.4 °C 30.14in /  1020.5hPa NE 3.0mph /  4.8km/h 4.0mph /  6.4km/h 53% 0.00in /  0mm
22:49 68.5 °F /  20.3 °C 51.2 °F /  10.7 °C 30.14in /  1020.5hPa Calm   4.0mph /  6.4km/h 54% 0.00in /  0mm
22:54 68.3 °F /  20.2 °C 51.0 °F /  10.6 °C 30.14in /  1020.5hPa NE 2.0mph /  3.2km/h 4.0mph /  6.4km/h 54% 0.00in /  0mm
22:59 68.2 °F /  20.1 °C 50.9 °F /  10.5 °C 30.14in /  1020.5hPa NE 1.0mph /  1.6km/h 4.0mph /  6.4km/h 54% 0.00in /  0mm
23:04 68.1 °F /  20.1 °C 50.8 °F /  10.4 °C 30.14in /  1020.5hPa NE 2.0mph /  3.2km/h 3.0mph /  4.8km/h 54% 0.00in /  0mm
23:09 67.9 °F /  19.9 °C 50.6 °F /  10.3 °C 30.14in /  1020.5hPa Calm   2.0mph /  3.2km/h 54% 0.00in /  0mm
23:14 67.5 °F /  19.7 °C 50.8 °F /  10.4 °C 30.14in /  1020.5hPa Calm   3.0mph /  4.8km/h 55% 0.00in /  0mm
23:19 67.2 °F /  19.6 °C 50.5 °F /  10.3 °C 30.14in /  1020.5hPa ENE 2.0mph /  3.2km/h 2.0mph /  3.2km/h 55% 0.00in /  0mm
23:24 66.7 °F /  19.3 °C 51.0 °F /  10.6 °C 30.14in /  1020.5hPa Calm   2.0mph /  3.2km/h 57% 0.00in /  0mm
23:29 66.5 °F /  19.2 °C 50.8 °F /  10.4 °C 30.14in /  1020.5hPa Calm   2.0mph /  3.2km/h 57% 0.00in /  0mm
23:34 66.3 °F /  19.1 °C 51.1 °F /  10.6 °C 30.14in /  1020.5hPa Calm     58% 0.00in /  0mm
23:39 65.9 °F /  18.8 °C 51.2 °F /  10.7 °C 30.15in /  1020.9hPa Calm     59% 0.00in /  0mm
23:44 65.4 °F /  18.6 °C 51.1 °F /  10.6 °C 30.14in /  1020.5hPa Calm     60% 0.00in /  0mm
23:49 65.2 °F /  18.4 °C 51.0 °F /  10.6 °C 30.14in /  1020.5hPa Calm     60% 0.00in /  0mm
23:54 65.3 °F /  18.5 °C 51.5 °F /  10.8 °C 30.14in /  1020.5hPa Calm     61% 0.00in /  0mm
23:59 65.0 °F /  18.3 °C 51.2 °F /  10.7 °C 30.14in /  1020.5hPa Calm     61% 0.00in /  0mm
Buffalo, New York, USA
Compliments of Weather Underground - 2.5 mb